Time;durP1;ratioP1;P1;durP2;ratioP2;P2;SDS_P1;SDS_P2;PMS_P1;PMS_P2;Temp;Humidity;BMP_temperature;BMP_pressure;BME280_temperature;BME280_humidity;BME280_pressure;Samples;Min_cycle;Max_cycle;Signal;HPM_P1;HPM_P2
2023/01/10 00:01:15;;;;;;;;;;;;;;;4.05;75.00;93879.41;4166658;28;20368;-72
2023/01/10 00:03:16;;;;;;;;;;;;;;;4.08;74.43;93881.72;4180245;28;19920;-73
2023/01/10 00:05:18;;;;;;;;;;;;;;;3.95;75.27;93889.78;4158070;28;19921;-71
2023/01/10 00:07:19;;;;;;;;;;;;;;;3.81;75.57;93869.50;4169732;28;19956;-72
2023/01/10 00:09:21;;;;;;;;;;;;;;;3.67;75.74;93858.59;4163183;28;20487;-73
2023/01/10 00:13:45;;;;;;;;;;;;;;;3.89;75.68;93867.00;4179733;28;19924;-70
2023/01/10 00:15:47;;;;;;;;;;;;;;;4.00;75.60;93873.81;4161655;28;19921;-72
2023/01/10 00:17:48;;;;;;;;;;;;;;;4.10;75.25;93872.84;4166213;28;20379;-75
2023/01/10 00:19:50;;;;;;;;;;;;;;;4.02;75.18;93846.81;4179278;28;20259;-71
2023/01/10 00:21:52;;;;;;;;;;;;;;;4.04;74.93;93857.88;4179408;28;19947;-71
2023/01/10 00:23:53;;;;;;;;;;;;;;;4.16;74.42;93858.50;4161497;28;20086;-74
2023/01/10 00:25:55;;;;;;;;;;;;;;;4.18;74.33;93845.41;4171946;28;19924;-73
2023/01/10 00:28:10;;;;;;;;;;;;;;;4.14;74.07;93846.66;4179657;28;19964;-72
2023/01/10 00:30:14;;;;;;;;;;;;;;;4.20;74.23;93865.06;4175326;28;19921;-73
2023/01/10 00:32:16;;;;;;;;;;;;;;;4.23;74.05;93843.22;4174915;28;19921;-74
2023/01/10 00:34:17;;;;;;;;;;;;;;;4.28;74.35;93861.75;4173693;28;20427;-72
2023/01/10 00:36:19;;;;;;;;;;;;;;;4.35;74.16;93862.81;4153809;28;20359;-75
2023/01/10 00:38:20;;;;;;;;;;;;;;;4.18;74.21;93848.81;4175775;28;20380;-69
2023/01/10 00:40:22;;;;;;;;;;;;;;;4.21;74.49;93847.72;4176586;28;19982;-74
2023/01/10 00:44:45;;;;;;;;;;;;;;;4.21;74.37;93821.78;4165485;28;19950;-73
2023/01/10 00:46:47;;;;;;;;;;;;;;;3.84;74.51;93768.97;4165422;28;19920;-73
2023/01/10 00:48:49;;;;;;;;;;;;;;;3.81;75.32;93810.72;4169157;28;19921;-73
2023/01/10 00:50:50;;;;;;;;;;;;;;;3.87;75.27;93832.66;4172051;28;19943;-72
2023/01/10 00:52:52;;;;;;;;;;;;;;;4.04;75.32;93821.59;4171884;28;19921;-71
2023/01/10 00:54:53;;;;;;;;;;;;;;;4.14;74.88;93831.09;4171974;28;19931;-72
2023/01/10 00:56:55;;;;;;;;;;;;;;;4.27;74.70;93826.41;4174995;28;20280;-73
2023/01/10 00:58:57;;;;;;;;;;;;;;;4.33;74.11;93840.59;4169382;28;20379;-73
2023/01/10 01:00:58;;;;;;;;;;;;;;;4.38;74.04;93834.00;4173354;28;19925;-73
2023/01/10 01:03:02;;;;;;;;;;;;;;;4.45;73.16;93810.91;4179519;28;20010;-73
2023/01/10 01:05:05;;;;;;;;;;;;;;;4.51;72.93;93805.97;4171782;28;19991;-73
2023/01/10 01:07:06;;;;;;;;;;;;;;;4.53;73.21;93807.59;4175449;28;19924;-73
2023/01/10 01:09:09;;;;;;;;;;;;;;;4.51;72.78;93798.19;4178714;28;19944;-72
2023/01/10 01:11:10;;;;;;;;;;;;;;;4.54;72.50;93824.78;4165473;28;19960;-73
2023/01/10 01:13:16;;;;;;;;;;;;;;;4.53;73.08;93818.78;4160723;28;20438;-71
2023/01/10 01:15:17;;;;;;;;;;;;;;;4.30;73.34;93808.81;4170914;28;19971;-73
2023/01/10 01:17:19;;;;;;;;;;;;;;;4.20;73.54;93822.75;4180723;28;19971;-73
2023/01/10 01:19:20;;;;;;;;;;;;;;;4.21;74.52;93816.59;4179209;28;19979;-73
2023/01/10 01:21:26;;;;;;;;;;;;;;;4.23;73.71;93819.88;4177255;28;20288;-71
2023/01/10 01:23:28;;;;;;;;;;;;;;;4.08;74.44;93799.59;4177531;28;20126;-75
2023/01/10 01:25:30;;;;;;;;;;;;;;;3.83;75.44;93811.41;4177932;28;19943;-71
2023/01/10 01:27:33;;;;;;;;;;;;;;;3.85;76.18;93829.38;4178233;28;19921;-71
2023/01/10 01:29:35;;;;;;;;;;;;;;;3.81;76.03;93807.31;4168536;28;19921;-72
2023/01/10 01:31:43;;;;;;;;;;;;;;;3.57;76.02;93812.94;4161495;28;19936;-74
2023/01/10 01:33:45;;;;;;;;;;;;;;;3.74;77.00;93829.53;4162038;28;20337;-74
2023/01/10 01:35:47;;;;;;;;;;;;;;;3.93;75.49;93821.72;4172804;28;19956;-73
2023/01/10 01:37:49;;;;;;;;;;;;;;;4.02;75.59;93810.53;4171509;28;20023;-73
2023/01/10 01:39:51;;;;;;;;;;;;;;;3.92;75.17;93785.63;4172778;28;19978;-72
2023/01/10 01:41:59;;;;;;;;;;;;;;;3.90;75.26;93811.66;4178430;28;19987;-71
2023/01/10 01:44:05;;;;;;;;;;;;;;;4.04;75.93;93793.09;4160866;28;19925;-71
2023/01/10 01:46:06;;;;;;;;;;;;;;;4.16;75.01;93785.94;4173940;28;19925;-72
2023/01/10 01:48:11;;;;;;;;;;;;;;;4.26;74.07;93801.47;4179268;28;19925;-74
2023/01/10 01:50:14;;;;;;;;;;;;;;;4.25;74.11;93792.84;4175137;28;19925;-73
2023/01/10 01:52:26;;;;;;;;;;;;;;;4.12;74.07;93801.91;4175556;28;19925;-73
2023/01/10 01:54:28;;;;;;;;;;;;;;;4.12;74.62;93776.81;4165903;28;19943;-73
2023/01/10 01:56:32;;;;;;;;;;;;;;;3.83;75.66;93801.03;4161033;28;20407;-73
2023/01/10 01:58:50;;;;;;;;;;;;;;;3.93;75.90;93801.00;4174878;28;20463;-72
2023/01/10 02:00:52;;;;;;;;;;;;;;;4.16;75.82;93779.94;4173435;28;19921;-71
2023/01/10 02:02:55;;;;;;;;;;;;;;;4.31;74.24;93760.34;4175369;28;20379;-72
2023/01/10 02:05:07;;;;;;;;;;;;;;;4.41;73.91;93763.72;4156559;28;20111;-75
2023/01/10 02:07:09;;;;;;;;;;;;;;;4.54;73.39;93731.41;4140499;28;19922;-73
2023/01/10 02:09:13;;;;;;;;;;;;;;;4.59;73.71;93761.16;4152085;28;19971;-73
2023/01/10 02:11:15;;;;;;;;;;;;;;;4.50;72.77;93765.44;4142713;28;19929;-73
2023/01/10 02:13:17;;;;;;;;;;;;;;;4.29;73.01;93770.84;4157941;28;19921;-70
2023/01/10 02:15:19;;;;;;;;;;;;;;;3.94;74.96;93770.75;4147708;28;20658;-71
2023/01/10 02:17:20;;;;;;;;;;;;;;;3.87;75.53;93784.25;4160397;28;19921;-72
2023/01/10 02:19:43;;;;;;;;;;;;;;;3.44;77.08;93745.91;4159353;28;19935;-72
2023/01/10 02:22:08;;;;;;;;;;;;;;;3.66;77.21;93742.19;4149299;28;19952;-73
2023/01/10 02:24:21;;;;;;;;;;;;;;;3.93;76.53;93749.19;4153292;28;20248;-74
2023/01/10 02:26:37;;;;;;;;;;;;;;;4.10;75.69;93729.47;4142627;28;19995;-72
2023/01/10 02:28:49;;;;;;;;;;;;;;;4.23;75.19;93745.50;4161017;28;19920;-71
2023/01/10 02:30:56;;;;;;;;;;;;;;;4.37;74.72;93744.22;4142966;28;20570;-73
2023/01/10 02:33:15;;;;;;;;;;;;;;;4.23;74.42;93734.31;4142019;28;20376;-73
2023/01/10 02:35:23;;;;;;;;;;;;;;;4.21;74.36;93746.63;4161272;28;19971;-73
2023/01/10 02:37:27;;;;;;;;;;;;;;;3.99;75.02;93755.59;4139768;28;20357;-71
2023/01/10 02:39:30;;;;;;;;;;;;;;;4.01;76.08;93746.69;4125748;28;20016;-75
2023/01/10 02:41:37;;;;;;;;;;;;;;;4.10;75.46;93732.88;4162371;28;19975;-70
2023/01/10 02:43:40;;;;;;;;;;;;;;;4.17;75.47;93746.06;4143714;28;20370;-72
2023/01/10 02:45:50;;;;;;;;;;;;;;;4.25;74.82;93727.22;4143525;28;20432;-72
2023/01/10 02:47:51;;;;;;;;;;;;;;;4.34;75.25;93735.91;4142908;28;19929;-71
2023/01/10 02:49:53;;;;;;;;;;;;;;;4.36;74.80;93739.97;4160538;28;19940;-71
2023/01/10 02:51:55;;;;;;;;;;;;;;;4.46;74.74;93735.56;4160998;28;19996;-72
2023/01/10 02:53:56;;;;;;;;;;;;;;;4.37;73.65;93741.63;4131108;28;19932;-72
2023/01/10 02:55:58;;;;;;;;;;;;;;;4.00;75.08;93747.66;4146017;28;19929;-70
2023/01/10 02:58:29;;;;;;;;;;;;;;;3.94;76.20;93761.19;4151407;28;20633;-71
2023/01/10 03:00:44;;;;;;;;;;;;;;;4.00;75.96;93755.44;4094947;28;20352;-72
2023/01/10 03:03:06;;;;;;;;;;;;;;;4.03;75.52;93755.16;4133527;28;20087;-72
2023/01/10 03:05:13;;;;;;;;;;;;;;;4.09;75.46;93764.94;4145417;28;20028;-70
2023/01/10 03:07:36;;;;;;;;;;;;;;;4.21;75.50;93756.97;4145121;28;19925;-72
2023/01/10 03:09:38;;;;;;;;;;;;;;;4.00;75.61;93773.59;4114253;28;19925;-73
2023/01/10 03:11:39;;;;;;;;;;;;;;;4.02;75.50;93763.91;4157118;28;19921;-72
2023/01/10 03:13:41;;;;;;;;;;;;;;;3.84;75.88;93755.22;4142225;28;19921;-73
2023/01/10 03:15:43;;;;;;;;;;;;;;;3.91;76.48;93771.81;4161357;28;19921;-73
2023/01/10 03:17:45;;;;;;;;;;;;;;;4.03;75.79;93765.50;4161128;28;19983;-72
2023/01/10 03:19:48;;;;;;;;;;;;;;;4.14;75.43;93761.13;4160302;28;20015;-75
2023/01/10 03:21:51;;;;;;;;;;;;;;;4.01;75.59;93759.66;4132671;28;20064;-75
2023/01/10 03:23:53;;;;;;;;;;;;;;;4.07;75.81;93779.81;4154844;28;20019;-70
2023/01/10 03:25:55;;;;;;;;;;;;;;;4.14;75.16;93776.66;4132137;28;19976;-73
2023/01/10 03:28:07;;;;;;;;;;;;;;;4.20;75.40;93782.09;4142480;28;20016;-73
2023/01/10 03:30:15;;;;;;;;;;;;;;;4.21;74.96;93767.34;4143922;28;19932;-74
2023/01/10 03:32:18;;;;;;;;;;;;;;;4.31;74.51;93758.56;4135633;28;19928;-71
2023/01/10 03:34:20;;;;;;;;;;;;;;;4.08;74.87;93767.69;4145608;28;20130;-73
2023/01/10 03:36:30;;;;;;;;;;;;;;;4.16;75.09;93756.59;4163924;28;19921;-71
2023/01/10 03:38:41;;;;;;;;;;;;;;;4.28;74.42;93748.50;4142956;28;20011;-74
2023/01/10 03:40:47;;;;;;;;;;;;;;;4.42;74.44;93749.78;4140062;28;20381;-71
2023/01/10 03:45:16;;;;;;;;;;;;;;;4.58;73.92;93749.16;4149417;28;19929;-71
2023/01/10 03:47:18;;;;;;;;;;;;;;;4.58;72.73;93756.94;4164084;28;19960;-73
2023/01/10 03:49:19;;;;;;;;;;;;;;;4.54;73.61;93762.53;4155646;28;19929;-72
2023/01/10 03:51:21;;;;;;;;;;;;;;;4.55;73.20;93749.44;4141797;28;19984;-72
2023/01/10 03:53:23;;;;;;;;;;;;;;;4.55;73.52;93756.41;4152190;28;19971;-71
2023/01/10 03:55:26;;;;;;;;;;;;;;;4.54;73.33;93736.59;4159188;28;19929;-72
2023/01/10 03:57:27;;;;;;;;;;;;;;;4.37;73.72;93710.50;4138562;28;19921;-72
2023/01/10 03:59:29;;;;;;;;;;;;;;;4.36;74.11;93716.66;4158739;28;20531;-72
2023/01/10 04:01:30;;;;;;;;;;;;;;;4.47;74.50;93700.06;4155310;28;19984;-73
2023/01/10 04:03:32;;;;;;;;;;;;;;;4.60;73.21;93682.34;4151773;28;19921;-72
2023/01/10 04:05:34;;;;;;;;;;;;;;;4.74;72.76;93683.63;4162214;28;19963;-73
2023/01/10 04:07:36;;;;;;;;;;;;;;;4.85;72.22;93678.22;4162102;28;19939;-70
2023/01/10 04:09:37;;;;;;;;;;;;;;;4.93;72.42;93654.94;4173034;28;20068;-71
2023/01/10 04:11:39;;;;;;;;;;;;;;;4.89;71.85;93670.97;4174823;28;19929;-72
2023/01/10 04:13:41;;;;;;;;;;;;;;;4.92;71.65;93670.63;4174033;28;19920;-72
2023/01/10 04:15:43;;;;;;;;;;;;;;;4.92;71.45;93668.84;4180169;28;20062;-73
2023/01/10 04:17:45;;;;;;;;;;;;;;;4.87;71.57;93665.91;4180126;28;20418;-73
2023/01/10 04:19:47;;;;;;;;;;;;;;;4.89;72.08;93668.34;4179674;28;20421;-72
2023/01/10 04:21:48;;;;;;;;;;;;;;;4.92;72.06;93688.81;4179259;28;20351;-70
2023/01/10 04:23:50;;;;;;;;;;;;;;;4.99;71.18;93705.44;4161804;28;19983;-69
2023/01/10 04:25:51;;;;;;;;;;;;;;;5.09;71.19;93723.50;4180139;28;19975;-70
2023/01/10 04:27:53;;;;;;;;;;;;;;;5.13;71.31;93724.84;4180682;28;20155;-72
2023/01/10 04:29:54;;;;;;;;;;;;;;;5.16;71.33;93727.13;4162535;28;19929;-74
2023/01/10 04:31:56;;;;;;;;;;;;;;;5.11;70.84;93760.53;4180248;28;19920;-73
2023/01/10 04:33:58;;;;;;;;;;;;;;;5.05;70.82;93753.31;4180077;28;19921;-70
2023/01/10 04:35:59;;;;;;;;;;;;;;;4.99;71.65;93767.72;4178398;28;19928;-73
2023/01/10 04:38:01;;;;;;;;;;;;;;;5.05;71.09;93779.28;4170473;28;20309;-75
2023/01/10 04:40:03;;;;;;;;;;;;;;;4.99;71.35;93756.50;4170540;28;19920;-72
2023/01/10 04:42:04;;;;;;;;;;;;;;;4.95;71.27;93762.97;4167410;28;20380;-71
2023/01/10 04:44:06;;;;;;;;;;;;;;;4.93;71.89;93753.56;4179567;28;19920;-73
2023/01/10 04:46:07;;;;;;;;;;;;;;;4.97;71.95;93743.69;4146120;28;19980;-73
2023/01/10 04:48:09;;;;;;;;;;;;;;;5.02;71.71;93730.28;4172448;28;19968;-73
2023/01/10 04:50:11;;;;;;;;;;;;;;;5.08;71.98;93719.28;4166853;28;19929;-70
2023/01/10 04:52:12;;;;;;;;;;;;;;;5.16;71.72;93713.34;4160405;28;19924;-71
2023/01/10 04:54:14;;;;;;;;;;;;;;;5.20;70.61;93735.44;4179559;28;20232;-75
2023/01/10 04:56:17;;;;;;;;;;;;;;;5.28;70.78;93740.69;4161972;28;20396;-72
2023/01/10 04:58:18;;;;;;;;;;;;;;;5.31;70.33;93746.44;4179760;28;19924;-73
2023/01/10 05:00:20;;;;;;;;;;;;;;;5.34;70.17;93724.53;4163606;28;19995;-74
2023/01/10 05:02:21;;;;;;;;;;;;;;;5.32;70.04;93727.25;4164076;28;19920;-74
2023/01/10 05:04:23;;;;;;;;;;;;;;;5.30;70.30;93716.22;4163584;28;19928;-73
2023/01/10 05:06:25;;;;;;;;;;;;;;;5.29;70.19;93727.59;4158554;28;19972;-72
2023/01/10 05:08:26;;;;;;;;;;;;;;;5.30;70.40;93737.00;4175674;28;19924;-72
2023/01/10 05:10:28;;;;;;;;;;;;;;;5.25;69.74;93728.84;4163270;28;19921;-74
2023/01/10 05:12:30;;;;;;;;;;;;;;;5.22;69.86;93705.75;4164550;28;19925;-70
2023/01/10 05:14:31;;;;;;;;;;;;;;;5.17;70.66;93718.38;4178370;28;19975;-72
2023/01/10 05:16:33;;;;;;;;;;;;;;;5.15;71.11;93711.72;4160608;28;19921;-72
2023/01/10 05:18:35;;;;;;;;;;;;;;;5.11;70.66;93686.03;4178492;28;19979;-72
2023/01/10 05:20:37;;;;;;;;;;;;;;;5.02;70.16;93693.94;4179294;28;20344;-71
2023/01/10 05:22:38;;;;;;;;;;;;;;;4.94;70.62;93684.28;4177875;28;19972;-72
2023/01/10 05:24:40;;;;;;;;;;;;;;;4.96;71.50;93691.94;4147855;28;19927;-76
2023/01/10 05:26:42;;;;;;;;;;;;;;;4.98;71.81;93692.59;4178899;28;20153;-72
2023/01/10 05:28:43;;;;;;;;;;;;;;;5.07;70.88;93695.09;4178445;28;20011;-73
2023/01/10 05:30:45;;;;;;;;;;;;;;;5.06;70.71;93690.88;4162162;28;19925;-70
2023/01/10 05:32:46;;;;;;;;;;;;;;;5.02;70.57;93693.94;4176270;28;19976;-74
2023/01/10 05:34:48;;;;;;;;;;;;;;;4.97;71.41;93698.75;4161170;28;20356;-71
2023/01/10 05:36:50;;;;;;;;;;;;;;;4.99;71.23;93720.16;4176016;28;19927;-74
2023/01/10 05:38:51;;;;;;;;;;;;;;;5.08;71.25;93719.28;4176422;28;20164;-71
2023/01/10 05:40:54;;;;;;;;;;;;;;;5.17;70.49;93726.19;4174644;28;20322;-72
2023/01/10 05:42:56;;;;;;;;;;;;;;;5.24;70.47;93735.00;4163610;28;20372;-72
2023/01/10 05:44:57;;;;;;;;;;;;;;;5.31;70.57;93745.59;4179185;28;19920;-73
2023/01/10 05:46:59;;;;;;;;;;;;;;;5.33;70.52;93728.91;4178758;28;19974;-72
2023/01/10 05:49:00;;;;;;;;;;;;;;;5.37;70.30;93724.22;4179171;28;19924;-72
2023/01/10 05:51:02;;;;;;;;;;;;;;;5.43;70.58;93715.81;4177679;28;19921;-72
2023/01/10 05:53:04;;;;;;;;;;;;;;;5.46;69.85;93718.13;4159596;28;19956;-73
2023/01/10 05:55:06;;;;;;;;;;;;;;;5.47;69.77;93703.34;4178410;28;19978;-74
2023/01/10 05:57:08;;;;;;;;;;;;;;;5.46;69.39;93707.75;4165832;28;20008;-73
2023/01/10 05:59:09;;;;;;;;;;;;;;;5.48;69.45;93726.56;4164658;28;19920;-72
2023/01/10 06:01:28;;;;;;;;;;;;;;;5.48;69.66;93720.56;4163251;28;19925;-72
2023/01/10 06:03:29;;;;;;;;;;;;;;;5.38;69.98;93727.63;4178433;28;19996;-73
2023/01/10 06:05:31;;;;;;;;;;;;;;;5.41;69.73;93725.53;4167861;28;20002;-69
2023/01/10 06:07:32;;;;;;;;;;;;;;;5.47;70.27;93714.56;4177556;28;19928;-73
2023/01/10 06:09:34;;;;;;;;;;;;;;;5.52;69.31;93704.50;4177828;28;19920;-72
2023/01/10 06:11:37;;;;;;;;;;;;;;;5.53;69.58;93707.94;4166432;28;20403;-75
2023/01/10 06:13:39;;;;;;;;;;;;;;;5.57;69.57;93719.66;4156720;28;19928;-75
2023/01/10 06:15:40;;;;;;;;;;;;;;;5.60;69.52;93724.53;4168292;28;20173;-74
2023/01/10 06:17:43;;;;;;;;;;;;;;;5.65;68.89;93721.47;4159923;28;20344;-73
2023/01/10 06:19:44;;;;;;;;;;;;;;;5.69;68.92;93715.81;4164194;28;20254;-72
2023/01/10 06:21:46;;;;;;;;;;;;;;;5.69;68.87;93717.59;4173337;28;20466;-72
2023/01/10 06:23:47;;;;;;;;;;;;;;;5.69;69.00;93722.81;4168627;28;20007;-75
2023/01/10 06:25:49;;;;;;;;;;;;;;;5.73;68.76;93724.94;4178224;28;19924;-75
2023/01/10 06:27:50;;;;;;;;;;;;;;;5.74;68.83;93726.59;4177683;28;19982;-71
2023/01/10 06:29:52;;;;;;;;;;;;;;;5.77;68.92;93725.47;4178035;28;19971;-72
2023/01/10 06:31:54;;;;;;;;;;;;;;;5.79;68.59;93720.13;4178281;28;20340;-74
2023/01/10 06:33:55;;;;;;;;;;;;;;;5.74;68.80;93716.19;4178011;28;19928;-71
2023/01/10 06:35:57;;;;;;;;;;;;;;;5.75;68.79;93712.59;4177161;28;20147;-73
2023/01/10 06:37:58;;;;;;;;;;;;;;;5.72;68.69;93712.94;4177223;28;19921;-72
2023/01/10 06:40:00;;;;;;;;;;;;;;;5.74;69.04;93720.56;4176067;28;19932;-77
2023/01/10 06:42:01;;;;;;;;;;;;;;;5.74;69.72;93725.75;4172209;28;20331;-74
2023/01/10 06:44:03;;;;;;;;;;;;;;;5.77;69.88;93716.84;4175781;28;20282;-73
2023/01/10 06:46:04;;;;;;;;;;;;;;;5.79;70.37;93718.31;4177842;28;20374;-72
2023/01/10 06:48:06;;;;;;;;;;;;;;;5.82;70.27;93723.19;4177609;28;19925;-74
2023/01/10 06:50:08;;;;;;;;;;;;;;;5.83;70.09;93726.59;4176458;28;19925;-73
2023/01/10 06:52:10;;;;;;;;;;;;;;;5.86;70.46;93716.72;4175807;28;19982;-74
2023/01/10 06:54:11;;;;;;;;;;;;;;;5.88;70.45;93719.19;4177783;28;19997;-74
2023/01/10 06:56:13;;;;;;;;;;;;;;;5.88;70.39;93716.59;4178195;28;19925;-75
2023/01/10 06:58:17;;;;;;;;;;;;;;;5.91;71.06;93721.47;4175914;28;20012;-73
2023/01/10 07:00:19;;;;;;;;;;;;;;;5.93;71.04;93704.72;4175096;28;19976;-72
2023/01/10 07:02:20;;;;;;;;;;;;;;;5.92;70.85;93708.31;4176696;28;19921;-73
2023/01/10 07:04:22;;;;;;;;;;;;;;;5.91;70.94;93708.47;4158953;28;20165;-74
2023/01/10 07:06:24;;;;;;;;;;;;;;;5.94;71.46;93703.81;4175373;28;19921;-74
2023/01/10 07:08:25;;;;;;;;;;;;;;;6.01;71.45;93705.78;4163680;28;19994;-73
2023/01/10 07:10:27;;;;;;;;;;;;;;;6.03;71.31;93696.06;4170043;28;19966;-72
2023/01/10 07:12:28;;;;;;;;;;;;;;;6.07;71.47;93694.78;4160839;28;19925;-71
2023/01/10 07:14:30;;;;;;;;;;;;;;;6.11;71.47;93691.69;4143157;28;19933;-72
2023/01/10 07:16:32;;;;;;;;;;;;;;;6.15;71.44;93693.03;4176258;28;20509;-72
2023/01/10 07:18:34;;;;;;;;;;;;;;;6.17;71.57;93684.22;4177387;28;19921;-75
2023/01/10 07:20:35;;;;;;;;;;;;;;;6.14;71.44;93678.38;4159491;28;20024;-73
2023/01/10 07:22:37;;;;;;;;;;;;;;;6.14;71.48;93683.56;4176851;28;19970;-72
2023/01/10 07:24:40;;;;;;;;;;;;;;;6.18;72.03;93684.09;4176395;28;19927;-73
2023/01/10 07:26:42;;;;;;;;;;;;;;;6.21;72.25;93688.97;4177452;28;19982;-73
2023/01/10 07:28:44;;;;;;;;;;;;;;;6.27;71.73;93695.31;4168468;28;19971;-73
2023/01/10 07:30:46;;;;;;;;;;;;;;;6.28;71.99;93681.34;4172962;28;19921;-72
2023/01/10 07:32:54;;;;;;;;;;;;;;;6.24;71.73;93683.47;4163613;28;19983;-72
2023/01/10 07:34:55;;;;;;;;;;;;;;;6.07;71.42;93677.38;4157969;28;19921;-72
2023/01/10 07:36:57;;;;;;;;;;;;;;;5.96;71.79;93675.06;4176504;28;19921;-74
2023/01/10 07:38:58;;;;;;;;;;;;;;;5.90;72.30;93673.88;4175817;28;19930;-73
2023/01/10 07:41:01;;;;;;;;;;;;;;;5.90;72.79;93667.84;4176287;28;19963;-74
2023/01/10 07:43:03;;;;;;;;;;;;;;;5.85;73.17;93670.94;4170602;28;19921;-73
2023/01/10 07:45:06;;;;;;;;;;;;;;;5.85;73.43;93673.53;4171072;28;19947;-74
2023/01/10 07:47:07;;;;;;;;;;;;;;;5.86;74.29;93666.53;4170018;28;19984;-73
2023/01/10 07:49:09;;;;;;;;;;;;;;;5.86;74.40;93671.72;4158704;28;19921;-73
2023/01/10 07:51:10;;;;;;;;;;;;;;;5.94;74.45;93672.63;4162807;28;19972;-71
2023/01/10 07:53:12;;;;;;;;;;;;;;;5.95;74.11;93669.03;4170142;28;19971;-71
2023/01/10 07:55:14;;;;;;;;;;;;;;;5.93;74.42;93667.53;4170542;28;19943;-71
2023/01/10 07:57:16;;;;;;;;;;;;;;;6.01;74.67;93672.81;4176353;28;19975;-75
2023/01/10 07:59:17;;;;;;;;;;;;;;;6.01;74.22;93661.59;4158609;28;19984;-74
2023/01/10 08:01:19;;;;;;;;;;;;;;;6.04;74.08;93671.66;4150183;28;19947;-74
2023/01/10 08:03:23;;;;;;;;;;;;;;;6.01;73.99;93674.59;4166644;28;20336;-73
2023/01/10 08:05:25;;;;;;;;;;;;;;;5.99;74.26;93674.75;4161732;28;19921;-72
2023/01/10 08:07:29;;;;;;;;;;;;;;;6.03;74.28;93678.66;4142484;28;19968;-74
2023/01/10 08:09:31;;;;;;;;;;;;;;;5.98;74.38;93669.69;4166624;28;19994;-74
2023/01/10 08:11:33;;;;;;;;;;;;;;;5.98;74.80;93667.94;4161028;28;20323;-73
2023/01/10 08:13:34;;;;;;;;;;;;;;;6.03;75.15;93670.88;4161109;28;19974;-73
2023/01/10 08:15:36;;;;;;;;;;;;;;;6.06;74.31;93665.34;4166568;28;19920;-73
2023/01/10 08:17:40;;;;;;;;;;;;;;;6.01;74.65;93670.19;4178860;28;19921;-73
2023/01/10 08:19:41;;;;;;;;;;;;;;;5.88;75.32;93670.59;4179537;28;19955;-72
2023/01/10 08:21:43;;;;;;;;;;;;;;;5.65;76.21;93661.72;4161671;28;20352;-73
2023/01/10 08:23:44;;;;;;;;;;;;;;;5.71;76.54;93659.31;4178793;28;19924;-73
2023/01/10 08:25:46;;;;;;;;;;;;;;;5.78;76.98;93650.91;4179473;28;20280;-73
2023/01/10 08:27:48;;;;;;;;;;;;;;;5.86;76.53;93651.75;4178470;28;20000;-73
2023/01/10 08:29:50;;;;;;;;;;;;;;;5.95;76.11;93637.84;4163469;28;20422;-73
2023/01/10 08:31:51;;;;;;;;;;;;;;;5.99;76.05;93640.13;4181178;28;19924;-74
2023/01/10 08:33:53;;;;;;;;;;;;;;;6.01;76.09;93627.81;4179878;28;20705;-74
2023/01/10 08:35:54;;;;;;;;;;;;;;;5.95;75.77;93642.22;4176430;28;20237;-72
2023/01/10 08:37:59;;;;;;;;;;;;;;;5.94;75.53;93632.78;4162530;28;19921;-73
2023/01/10 08:40:01;;;;;;;;;;;;;;;5.78;75.67;93635.31;4166664;28;20318;-71
2023/01/10 08:42:02;;;;;;;;;;;;;;;5.74;75.98;93627.00;4179538;28;20072;-73
2023/01/10 08:44:04;;;;;;;;;;;;;;;5.80;76.52;93626.38;4174424;28;19931;-75
2023/01/10 08:46:06;;;;;;;;;;;;;;;5.85;76.13;93631.09;4158897;28;20057;-72
2023/01/10 08:48:08;;;;;;;;;;;;;;;5.82;76.36;93637.44;4178893;28;20311;-72
2023/01/10 08:50:10;;;;;;;;;;;;;;;5.84;76.09;93632.91;4179214;28;19920;-74
2023/01/10 08:52:12;;;;;;;;;;;;;;;5.79;75.57;93629.97;4179434;28;20371;-73
2023/01/10 08:54:13;;;;;;;;;;;;;;;5.74;75.98;93625.22;4178530;28;20221;-72
2023/01/10 08:56:15;;;;;;;;;;;;;;;5.73;76.38;93633.19;4179020;28;19931;-74
2023/01/10 08:58:16;;;;;;;;;;;;;;;5.72;76.34;93634.13;4179088;28;19975;-74
2023/01/10 09:00:18;;;;;;;;;;;;;;;5.65;76.00;93627.94;4178603;28;19921;-74
2023/01/10 09:02:20;;;;;;;;;;;;;;;5.63;76.17;93630.69;4178252;28;19927;-74
2023/01/10 09:04:21;;;;;;;;;;;;;;;5.56;76.33;93621.88;4178255;28;19996;-73
2023/01/10 09:06:23;;;;;;;;;;;;;;;5.62;76.33;93618.69;4174739;28;19920;-73
2023/01/10 09:08:24;;;;;;;;;;;;;;;5.61;76.25;93617.03;4160539;28;19955;-74
2023/01/10 09:10:29;;;;;;;;;;;;;;;5.56;75.74;93605.50;4160520;28;19971;-72
2023/01/10 09:14:51;;;;;;;;;;;;;;;5.54;76.03;93614.25;4178806;28;20326;-72
2023/01/10 09:16:52;;;;;;;;;;;;;;;5.56;76.45;93616.69;4178513;28;19936;-75
2023/01/10 09:18:55;;;;;;;;;;;;;;;5.49;75.92;93616.50;4178855;28;20011;-72
2023/01/10 09:20:56;;;;;;;;;;;;;;;5.48;75.79;93606.25;4178338;28;19925;-74
2023/01/10 09:22:59;;;;;;;;;;;;;;;5.54;76.32;93608.25;4177412;28;20319;-74
2023/01/10 09:25:01;;;;;;;;;;;;;;;5.56;76.70;93613.28;4178213;28;19925;-73
2023/01/10 09:27:02;;;;;;;;;;;;;;;5.50;76.09;93614.72;4160876;28;19921;-76
2023/01/10 09:29:04;;;;;;;;;;;;;;;5.52;75.86;93612.78;4177844;28;19920;-72
2023/01/10 09:31:07;;;;;;;;;;;;;;;5.54;75.70;93610.84;4178205;28;19943;-73
2023/01/10 09:33:09;;;;;;;;;;;;;;;5.57;75.82;93610.53;4160622;28;19920;-74
2023/01/10 09:35:11;;;;;;;;;;;;;;;5.60;75.67;93602.44;4152984;28;19922;-74
2023/01/10 09:37:12;;;;;;;;;;;;;;;5.59;75.52;93602.56;4174364;28;20237;-74
2023/01/10 09:39:14;;;;;;;;;;;;;;;5.63;76.23;93589.09;4177970;28;19920;-75
2023/01/10 09:41:24;;;;;;;;;;;;;;;5.53;75.89;93593.63;4172151;28;20656;-74
2023/01/10 09:43:41;;;;;;;;;;;;;;;5.55;76.51;93583.91;4169086;28;19983;-73
2023/01/10 09:45:45;;;;;;;;;;;;;;;5.27;77.17;93573.72;4172125;28;19920;-74
2023/01/10 09:47:53;;;;;;;;;;;;;;;5.05;78.72;93575.03;4160119;28;19979;-73
2023/01/10 09:50:16;;;;;;;;;;;;;;;5.02;79.62;93571.94;4172283;28;20241;-73
2023/01/10 09:52:22;;;;;;;;;;;;;;;5.06;79.00;93566.28;4168088;28;20020;-73
2023/01/10 09:54:42;;;;;;;;;;;;;;;5.21;79.14;93579.50;4170960;28;19920;-73
2023/01/10 09:56:43;;;;;;;;;;;;;;;5.33;78.13;93573.09;4158605;28;20300;-73
2023/01/10 09:58:53;;;;;;;;;;;;;;;5.33;78.49;93567.91;4168463;28;19921;-74
2023/01/10 10:00:56;;;;;;;;;;;;;;;5.37;77.77;93559.78;4164904;28;19922;-73
2023/01/10 10:02:57;;;;;;;;;;;;;;;5.41;78.28;93559.31;4154813;28;19921;-73
2023/01/10 10:05:03;;;;;;;;;;;;;;;5.48;77.72;93556.91;4171708;28;19999;-73
2023/01/10 10:07:07;;;;;;;;;;;;;;;5.54;77.54;93554.50;4142556;28;19944;-73
2023/01/10 10:09:12;;;;;;;;;;;;;;;5.54;77.51;93551.91;4153776;28;20419;-73
2023/01/10 10:11:26;;;;;;;;;;;;;;;5.47;77.26;93552.69;4153951;28;19936;-72
2023/01/10 10:13:31;;;;;;;;;;;;;;;5.46;77.89;93562.28;4171231;28;19921;-73
2023/01/10 10:15:36;;;;;;;;;;;;;;;5.41;78.15;93561.09;4177620;28;20031;-74
2023/01/10 10:17:41;;;;;;;;;;;;;;;5.40;78.08;93555.09;4170937;28;19947;-74
2023/01/10 10:19:51;;;;;;;;;;;;;;;5.43;78.47;93554.78;4169538;28;19967;-74
2023/01/10 10:22:02;;;;;;;;;;;;;;;5.45;78.29;93555.44;4177785;28;19924;-73
2023/01/10 10:24:19;;;;;;;;;;;;;;;5.56;78.75;93553.53;4171794;28;19925;-75
2023/01/10 10:26:34;;;;;;;;;;;;;;;5.58;78.02;93549.81;4176195;28;19920;-74
2023/01/10 10:28:45;;;;;;;;;;;;;;;5.61;78.35;93554.69;4159618;28;19920;-73
2023/01/10 10:30:55;;;;;;;;;;;;;;;5.68;77.79;93547.91;4169837;28;19928;-73
2023/01/10 10:33:03;;;;;;;;;;;;;;;5.72;77.79;93536.22;4173018;28;20396;-73
2023/01/10 10:35:25;;;;;;;;;;;;;;;5.74;77.35;93529.09;4159088;28;19921;-74
2023/01/10 10:37:32;;;;;;;;;;;;;;;5.73;77.59;93527.44;4158643;28;19991;-74
2023/01/10 10:39:37;;;;;;;;;;;;;;;5.77;77.20;93532.34;4159025;28;19990;-74
2023/01/10 10:41:42;;;;;;;;;;;;;;;5.74;77.41;93534.28;4171280;28;19982;-75
2023/01/10 10:43:44;;;;;;;;;;;;;;;5.67;77.93;93528.06;4159386;28;19921;-75
2023/01/10 10:45:47;;;;;;;;;;;;;;;5.48;78.27;93528.34;4173291;28;20007;-74
2023/01/10 10:47:52;;;;;;;;;;;;;;;5.43;78.95;93517.63;4177203;28;19921;-72
2023/01/10 10:50:06;;;;;;;;;;;;;;;5.29;79.31;93519.84;4153748;28;19947;-75
2023/01/10 10:52:16;;;;;;;;;;;;;;;5.32;79.70;93518.69;4168099;28;20036;-74
2023/01/10 10:54:18;;;;;;;;;;;;;;;5.44;80.29;93514.03;4159269;28;20384;-75
2023/01/10 10:56:20;;;;;;;;;;;;;;;5.32;79.50;93514.31;4160095;28;20253;-76
2023/01/10 10:58:22;;;;;;;;;;;;;;;5.38;79.63;93517.25;4159780;28;20307;-72
2023/01/10 11:00:24;;;;;;;;;;;;;;;5.42;79.43;93523.75;4171855;28;19925;-75
2023/01/10 11:02:29;;;;;;;;;;;;;;;5.47;79.85;93527.53;4171944;28;20422;-76